Terminal Aerodrome Forecast
Issued by NWS

Current Version | Previous Version | Graphics & Text | Print | Product List | Glossary On
Versions: 1 2 3 4 5 6 7 8 9 10 11 12 13 14 15 16 17 18 19 20 21
000
FTUS41 KILN 211740
TAFLUK
TAF
KLUK 211740Z 2118/2218 18007KT P6SM SCT090 BKN200
     FM220300 15004KT P6SM SCT035 BKN090
     FM221500 06005KT 5SM -RA BR BKN015 OVC035=

USA.gov is the U.S. government's official web portal to all federal, state and local government web resources and services.